Time;durP1;ratioP1;P1;durP2;ratioP2;P2;SDS_P1;SDS_P2;PMS_P1;PMS_P2;Temp;Humidity;BMP_temperature;BMP_pressure;BME280_temperature;BME280_humidity;BME280_pressure;Samples;Min_cycle;Max_cycle;Signal;HPM_P1;HPM_P2
2021/10/06 00:00:24;;;;;;;7.70;4.28;;;;;;;;;;5068986;28;20039;-55
2021/10/06 00:02:50;;;;;;;6.90;4.05;;;;;;;;;;5071500;28;20070;-56
2021/10/06 00:05:16;;;;;;;8.02;4.65;;;;;;;;;;5074254;28;20024;-56
2021/10/06 00:07:42;;;;;;;7.68;4.22;;;;;;;;;;5070660;28;20039;-57
2021/10/06 00:10:08;;;;;;;20.90;4.63;;;;;;;;;;5066987;28;20060;-56
2021/10/06 00:12:34;;;;;;;7.03;3.92;;;;;;;;;;5073322;28;20376;-57
2021/10/06 00:15:00;;;;;;;7.93;3.65;;;;;;;;;;5074218;28;20024;-55
2021/10/06 00:17:26;;;;;;;5.38;3.55;;;;;;;;;;5073810;28;20024;-54
2021/10/06 00:19:53;;;;;;;6.50;3.92;;;;;;;;;;5067765;28;20044;-56
2021/10/06 00:22:21;;;;;;;6.57;4.22;;;;;;;;;;5072420;28;20028;-57
2021/10/06 00:24:47;;;;;;;7.43;3.55;;;;;;;;;;5072256;28;20032;-55
2021/10/06 00:27:13;;;;;;;5.85;3.83;;;;;;;;;;5073652;28;20032;-56
2021/10/06 00:29:39;;;;;;;6.57;3.58;;;;;;;;;;5066455;28;20024;-57
2021/10/06 00:32:05;;;;;;;6.40;3.63;;;;;;;;;;5072089;28;20040;-57
2021/10/06 00:34:31;;;;;;;4.63;3.08;;;;;;;;;;5072120;28;20032;-57
2021/10/06 00:36:57;;;;;;;5.50;3.25;;;;;;;;;;5072032;28;20036;-57
2021/10/06 00:39:23;;;;;;;6.88;3.72;;;;;;;;;;5067112;28;20055;-57
2021/10/06 00:41:49;;;;;;;7.07;3.78;;;;;;;;;;5069886;28;20060;-56
2021/10/06 00:44:16;;;;;;;5.78;3.30;;;;;;;;;;5073179;28;20040;-57
2021/10/06 00:46:42;;;;;;;4.97;3.60;;;;;;;;;;5073263;28;20408;-58
2021/10/06 00:49:07;;;;;;;6.55;4.03;;;;;;;;;;5067250;28;20043;-55
2021/10/06 00:51:33;;;;;;;5.05;2.95;;;;;;;;;;5066017;28;20024;-56
2021/10/06 00:54:00;;;;;;;5.45;3.35;;;;;;;;;;5068912;28;20024;-58
2021/10/06 00:56:27;;;;;;;6.40;3.25;;;;;;;;;;5073247;28;20107;-54
2021/10/06 00:58:53;;;;;;;4.65;3.28;;;;;;;;;;5071130;28;20736;-57
2021/10/06 01:01:19;;;;;;;6.22;3.17;;;;;;;;;;5073055;28;20490;-57
2021/10/06 01:03:45;;;;;;;5.63;3.20;;;;;;;;;;5071970;28;20029;-56
2021/10/06 01:06:11;;;;;;;6.63;3.15;;;;;;;;;;5073261;28;20036;-56
2021/10/06 01:08:37;;;;;;;6.20;3.70;;;;;;;;;;5069299;28;20101;-55
2021/10/06 01:11:03;;;;;;;4.90;2.88;;;;;;;;;;5069046;28;20041;-54
2021/10/06 01:13:29;;;;;;;5.45;3.25;;;;;;;;;;5068221;28;20024;-57
2021/10/06 01:15:56;;;;;;;5.43;3.63;;;;;;;;;;5071596;28;20029;-58
2021/10/06 01:18:22;;;;;;;7.57;3.80;;;;;;;;;;5071823;28;20404;-56
2021/10/06 01:20:48;;;;;;;6.18;3.10;;;;;;;;;;5070433;28;20540;-55
2021/10/06 01:23:15;;;;;;;6.63;3.88;;;;;;;;;;5067604;28;20024;-57
2021/10/06 01:25:41;;;;;;;9.07;4.45;;;;;;;;;;5067924;28;20389;-57
2021/10/06 01:28:07;;;;;;;7.53;3.80;;;;;;;;;;5071200;28;20059;-57
2021/10/06 01:30:33;;;;;;;5.53;3.50;;;;;;;;;;5074278;28;20436;-59
2021/10/06 01:32:59;;;;;;;7.43;3.70;;;;;;;;;;5069886;28;20028;-57
2021/10/06 01:35:25;;;;;;;5.47;3.22;;;;;;;;;;5069873;28;20028;-58
2021/10/06 01:37:51;;;;;;;5.00;3.33;;;;;;;;;;5071211;28;20100;-58
2021/10/06 01:40:18;;;;;;;5.30;3.35;;;;;;;;;;5071565;28;20032;-58
2021/10/06 01:42:44;;;;;;;4.72;3.05;;;;;;;;;;5067481;28;20421;-55
2021/10/06 01:45:22;;;;;;;5.95;3.67;;;;;;;;;;5069373;28;20037;-58
2021/10/06 01:47:48;;;;;;;4.97;3.50;;;;;;;;;;5071954;28;20032;-56
2021/10/06 01:50:21;;;;;;;6.30;3.33;;;;;;;;;;5066164;28;20036;-57
2021/10/06 01:52:47;;;;;;;6.10;3.60;;;;;;;;;;5071320;28;20186;-56
2021/10/06 01:55:13;;;;;;;5.35;3.20;;;;;;;;;;5070438;28;20025;-58
2021/10/06 01:57:39;;;;;;;5.85;3.63;;;;;;;;;;5065564;28;20025;-55
2021/10/06 02:00:06;;;;;;;5.28;3.50;;;;;;;;;;5063769;28;20027;-57
2021/10/06 02:02:32;;;;;;;6.53;3.42;;;;;;;;;;5071874;28;20131;-56
2021/10/06 02:04:58;;;;;;;5.93;3.90;;;;;;;;;;5071003;28;20050;-57
2021/10/06 02:07:24;;;;;;;4.80;3.17;;;;;;;;;;5072064;28;20059;-59
2021/10/06 02:09:50;;;;;;;5.82;3.03;;;;;;;;;;5069807;28;20017;-58
2021/10/06 02:12:16;;;;;;;4.72;3.35;;;;;;;;;;5071785;28;20032;-55
2021/10/06 02:14:42;;;;;;;6.45;3.85;;;;;;;;;;5071519;28;20043;-54
2021/10/06 02:17:08;;;;;;;6.68;3.63;;;;;;;;;;5071828;28;20460;-58
2021/10/06 02:19:34;;;;;;;4.97;3.08;;;;;;;;;;5066743;28;20055;-56
2021/10/06 02:22:00;;;;;;;6.00;3.42;;;;;;;;;;5070857;28;20024;-57
2021/10/06 02:24:25;;;;;;;4.55;3.03;;;;;;;;;;5069441;28;20032;-57
2021/10/06 02:26:52;;;;;;;6.72;3.30;;;;;;;;;;5071727;28;20119;-55
2021/10/06 02:29:18;;;;;;;5.57;3.25;;;;;;;;;;5071691;28;20032;-58
2021/10/06 02:31:44;;;;;;;5.80;3.30;;;;;;;;;;5071495;28;20541;-58
2021/10/06 02:34:10;;;;;;;4.75;3.40;;;;;;;;;;5072172;28;20064;-58
2021/10/06 02:36:36;;;;;;;4.75;3.28;;;;;;;;;;5075336;28;20041;-58
2021/10/06 02:39:02;;;;;;;4.88;3.63;;;;;;;;;;5077664;28;20071;-58
2021/10/06 02:41:28;;;;;;;4.75;3.10;;;;;;;;;;5077864;28;20047;-58
2021/10/06 02:43:54;;;;;;;4.70;3.03;;;;;;;;;;5075343;28;20121;-57
2021/10/06 02:46:20;;;;;;;5.88;3.20;;;;;;;;;;5077991;28;20028;-56
2021/10/06 02:48:46;;;;;;;4.70;3.38;;;;;;;;;;5077900;28;20032;-59
2021/10/06 02:51:12;;;;;;;4.85;3.15;;;;;;;;;;5069981;28;20036;-58
2021/10/06 02:53:38;;;;;;;6.47;3.88;;;;;;;;;;5075477;28;20028;-55
2021/10/06 02:56:04;;;;;;;5.45;3.65;;;;;;;;;;5077921;28;20027;-56
2021/10/06 02:58:30;;;;;;;7.07;3.38;;;;;;;;;;5070217;28;20028;-57
2021/10/06 03:00:56;;;;;;;4.55;3.25;;;;;;;;;;5077996;28;20078;-57
2021/10/06 03:03:22;;;;;;;4.70;3.25;;;;;;;;;;5069397;28;20107;-57
2021/10/06 03:05:48;;;;;;;6.30;3.80;;;;;;;;;;5077251;28;20495;-58
2021/10/06 03:08:14;;;;;;;7.07;3.67;;;;;;;;;;5073591;28;20116;-56
2021/10/06 03:10:40;;;;;;;5.88;3.78;;;;;;;;;;5077439;28;20024;-58
2021/10/06 03:13:06;;;;;;;5.90;3.72;;;;;;;;;;5077628;28;20028;-53
2021/10/06 03:15:32;;;;;;;5.45;3.67;;;;;;;;;;5073281;28;20028;-54
2021/10/06 03:17:58;;;;;;;5.68;3.00;;;;;;;;;;5075153;28;20077;-55
2021/10/06 03:20:24;;;;;;;4.80;3.33;;;;;;;;;;5065748;28;20032;-54
2021/10/06 03:22:50;;;;;;;6.10;3.72;;;;;;;;;;5066554;28;20040;-58
2021/10/06 03:25:16;;;;;;;7.68;3.97;;;;;;;;;;5073956;28;20119;-57
2021/10/06 03:27:42;;;;;;;7.43;4.00;;;;;;;;;;5075136;28;20442;-55
2021/10/06 03:30:09;;;;;;;4.97;3.30;;;;;;;;;;5078300;28;20063;-57
2021/10/06 03:32:35;;;;;;;7.10;3.85;;;;;;;;;;5074680;28;20020;-58
2021/10/06 03:35:01;;;;;;;4.72;3.33;;;;;;;;;;5075044;28;20503;-58
2021/10/06 03:37:27;;;;;;;5.03;3.35;;;;;;;;;;5070599;28;20121;-57
2021/10/06 03:39:53;;;;;;;5.72;3.45;;;;;;;;;;5075675;28;20032;-58
2021/10/06 03:42:19;;;;;;;4.57;3.15;;;;;;;;;;5074125;28;20024;-57
2021/10/06 03:44:45;;;;;;;5.40;3.53;;;;;;;;;;5075516;28;20123;-55
2021/10/06 03:47:11;;;;;;;5.85;3.63;;;;;;;;;;5071225;28;20409;-58
2021/10/06 03:49:36;;;;;;;4.80;2.95;;;;;;;;;;5072244;28;20028;-56
2021/10/06 03:52:03;;;;;;;5.22;3.30;;;;;;;;;;5074442;28;20111;-57
2021/10/06 03:54:29;;;;;;;6.82;2.90;;;;;;;;;;5072208;28;20111;-56
2021/10/06 03:56:55;;;;;;;4.72;2.95;;;;;;;;;;5073067;28;20088;-55
2021/10/06 03:59:21;;;;;;;4.40;3.17;;;;;;;;;;5073163;28;20040;-57
2021/10/06 04:01:47;;;;;;;4.30;2.70;;;;;;;;;;5074181;28;20385;-58
2021/10/06 04:04:13;;;;;;;4.90;3.10;;;;;;;;;;5073072;28;20032;-56
2021/10/06 04:06:39;;;;;;;7.30;3.45;;;;;;;;;;5073026;28;20024;-58
2021/10/06 04:09:05;;;;;;;4.35;2.92;;;;;;;;;;5068828;28;20485;-56
2021/10/06 04:11:31;;;;;;;4.43;2.80;;;;;;;;;;5071253;28;20480;-57
2021/10/06 04:13:57;;;;;;;3.70;3.10;;;;;;;;;;5073119;28;20039;-57
2021/10/06 04:16:23;;;;;;;6.85;3.00;;;;;;;;;;5071645;28;20036;-56
2021/10/06 04:18:49;;;;;;;4.25;2.83;;;;;;;;;;5069989;28;20496;-58
2021/10/06 04:21:15;;;;;;;5.55;3.40;;;;;;;;;;5065083;28;20042;-55
2021/10/06 04:23:41;;;;;;;4.50;2.80;;;;;;;;;;5072866;28;20657;-55
2021/10/06 04:26:07;;;;;;;8.15;3.05;;;;;;;;;;5063458;28;20082;-57
2021/10/06 04:28:34;;;;;;;5.60;3.17;;;;;;;;;;5074107;28;20032;-54
2021/10/06 04:31:00;;;;;;;5.68;3.10;;;;;;;;;;5070945;28;20024;-56
2021/10/06 04:33:26;;;;;;;4.82;3.22;;;;;;;;;;5065259;28;20025;-55
2021/10/06 04:35:52;;;;;;;5.40;3.17;;;;;;;;;;5068563;28;20104;-57
2021/10/06 04:38:18;;;;;;;4.38;3.10;;;;;;;;;;5067404;28;20738;-58
2021/10/06 04:40:44;;;;;;;4.63;3.10;;;;;;;;;;5072250;28;20025;-56
2021/10/06 04:43:11;;;;;;;4.03;2.80;;;;;;;;;;5068850;28;20039;-57
2021/10/06 04:45:37;;;;;;;3.67;2.72;;;;;;;;;;5066534;28;20025;-57
2021/10/06 04:48:03;;;;;;;4.38;2.60;;;;;;;;;;5069648;28;20068;-56
2021/10/06 04:50:30;;;;;;;4.57;3.03;;;;;;;;;;5065942;28;20039;-57
2021/10/06 04:52:56;;;;;;;3.47;2.63;;;;;;;;;;5059434;28;20020;-54
2021/10/06 04:55:22;;;;;;;7.78;2.70;;;;;;;;;;5068733;28;20059;-57
2021/10/06 04:57:48;;;;;;;3.92;2.67;;;;;;;;;;5070708;28;20104;-56
2021/10/06 05:00:14;;;;;;;4.07;2.30;;;;;;;;;;5068148;28;20025;-54
2021/10/06 05:02:40;;;;;;;4.47;2.38;;;;;;;;;;5070367;28;20482;-54
2021/10/06 05:05:07;;;;;;;4.13;2.67;;;;;;;;;;5070572;28;20115;-57
2021/10/06 05:07:33;;;;;;;4.32;2.55;;;;;;;;;;5068358;28;20020;-55
2021/10/06 05:09:59;;;;;;;3.88;2.53;;;;;;;;;;5071120;28;20031;-55
2021/10/06 05:12:25;;;;;;;3.63;2.50;;;;;;;;;;5069390;28;20013;-56
2021/10/06 05:14:51;;;;;;;3.78;2.58;;;;;;;;;;5072541;28;20380;-56
2021/10/06 05:17:17;;;;;;;3.13;2.40;;;;;;;;;;5071213;28;20017;-51
2021/10/06 05:19:43;;;;;;;4.35;2.33;;;;;;;;;;5069861;28;20048;-52
2021/10/06 05:22:09;;;;;;;2.97;2.20;;;;;;;;;;5069466;28;20037;-56
2021/10/06 05:24:35;;;;;;;4.35;2.50;;;;;;;;;;5070059;28;20032;-53
2021/10/06 05:27:01;;;;;;;3.83;2.35;;;;;;;;;;5069409;28;20396;-56
2021/10/06 05:29:27;;;;;;;4.65;2.10;;;;;;;;;;5069817;28;20127;-53
2021/10/06 05:31:53;;;;;;;2.95;1.98;;;;;;;;;;5059202;28;20037;-55
2021/10/06 05:34:19;;;;;;;2.72;2.05;;;;;;;;;;5062463;28;20037;-57
2021/10/06 05:36:45;;;;;;;3.10;2.13;;;;;;;;;;5071751;28;20477;-57
2021/10/06 05:39:11;;;;;;;4.47;2.60;;;;;;;;;;5071643;28;20361;-56
2021/10/06 05:41:37;;;;;;;7.50;2.80;;;;;;;;;;5068427;28;20060;-53
2021/10/06 05:44:03;;;;;;;3.90;2.20;;;;;;;;;;5067106;28;20080;-55
2021/10/06 05:46:30;;;;;;;3.67;2.00;;;;;;;;;;5071195;28;20025;-54
2021/10/06 05:48:58;;;;;;;2.65;1.52;;;;;;;;;;5071749;28;20107;-55
2021/10/06 05:51:24;;;;;;;2.42;1.67;;;;;;;;;;5067472;28;20477;-54
2021/10/06 05:53:50;;;;;;;2.83;2.00;;;;;;;;;;5071954;28;20086;-56
2021/10/06 05:56:16;;;;;;;1.90;1.63;;;;;;;;;;5072162;28;20021;-52
2021/10/06 05:58:42;;;;;;;3.45;2.10;;;;;;;;;;5070817;28;20028;-56
2021/10/06 06:01:08;;;;;;;2.70;1.95;;;;;;;;;;5070433;28;20106;-52
2021/10/06 06:03:34;;;;;;;3.05;2.42;;;;;;;;;;5071602;28;20029;-57
2021/10/06 06:06:00;;;;;;;3.10;2.30;;;;;;;;;;5072489;28;20078;-53
2021/10/06 06:08:26;;;;;;;3.35;2.22;;;;;;;;;;5070709;28;20036;-54
2021/10/06 06:10:52;;;;;;;3.13;2.25;;;;;;;;;;5063950;28;20357;-55
2021/10/06 06:13:18;;;;;;;3.80;2.40;;;;;;;;;;5069725;28;20024;-55
2021/10/06 06:15:46;;;;;;;4.80;2.67;;;;;;;;;;5070908;28;20035;-54
2021/10/06 06:18:12;;;;;;;6.65;2.58;;;;;;;;;;5070737;28;20054;-55
2021/10/06 06:20:38;;;;;;;5.72;2.42;;;;;;;;;;5066689;28;20281;-55
2021/10/06 06:23:04;;;;;;;3.50;2.47;;;;;;;;;;5071064;28;20060;-55
2021/10/06 06:25:30;;;;;;;2.67;1.77;;;;;;;;;;5063110;28;20025;-55
2021/10/06 06:27:56;;;;;;;3.55;2.50;;;;;;;;;;5070750;28;20024;-57
2021/10/06 06:30:22;;;;;;;3.88;1.98;;;;;;;;;;5066997;28;20108;-57
2021/10/06 06:32:48;;;;;;;3.22;2.08;;;;;;;;;;5070807;28;20024;-57
2021/10/06 06:35:14;;;;;;;5.63;1.88;;;;;;;;;;5072136;28;20025;-55
2021/10/06 06:37:40;;;;;;;3.55;1.92;;;;;;;;;;5069029;28;20040;-56
2021/10/06 06:40:07;;;;;;;4.78;1.90;;;;;;;;;;5071003;28;20036;-55
2021/10/06 06:42:33;;;;;;;3.65;1.40;;;;;;;;;;5071273;28;20040;-56
2021/10/06 06:44:59;;;;;;;2.75;1.52;;;;;;;;;;5069920;28;20456;-56
2021/10/06 06:47:25;;;;;;;2.75;1.58;;;;;;;;;;5068212;28;20833;-53
2021/10/06 06:49:52;;;;;;;2.65;1.63;;;;;;;;;;5070651;28;20028;-55
2021/10/06 06:52:18;;;;;;;3.55;1.40;;;;;;;;;;5068667;28;20032;-57
2021/10/06 06:54:44;;;;;;;4.60;1.92;;;;;;;;;;5068900;28;20526;-55
2021/10/06 06:57:10;;;;;;;1.48;1.10;;;;;;;;;;5067231;28;20361;-58
2021/10/06 06:59:37;;;;;;;2.15;1.23;;;;;;;;;;5070541;28;20024;-55
2021/10/06 07:02:03;;;;;;;1.88;1.27;;;;;;;;;;5071588;28;20042;-57
2021/10/06 07:04:29;;;;;;;1.90;1.00;;;;;;;;;;5068562;28;20032;-57
2021/10/06 07:06:58;;;;;;;1.98;1.00;;;;;;;;;;5066082;28;20033;-56
2021/10/06 07:09:25;;;;;;;4.68;1.00;;;;;;;;;;5066574;28;20086;-54
2021/10/06 07:11:54;;;;;;;2.20;1.13;;;;;;;;;;5071665;28;20107;-52
2021/10/06 07:14:20;;;;;;;1.33;0.90;;;;;;;;;;5070950;28;20415;-53
2021/10/06 07:16:47;;;;;;;2.70;1.35;;;;;;;;;;5071587;28;20036;-55
2021/10/06 07:19:13;;;;;;;2.20;0.90;;;;;;;;;;5064410;28;20480;-56
2021/10/06 07:21:43;;;;;;;1.00;0.90;;;;;;;;;;5068227;28;20028;-58
2021/10/06 07:24:09;;;;;;;2.30;0.90;;;;;;;;;;5074655;28;20024;-52
2021/10/06 07:26:35;;;;;;;1.10;0.70;;;;;;;;;;5069806;28;20032;-54
2021/10/06 07:29:01;;;;;;;1.63;0.90;;;;;;;;;;5076998;28;20472;-53
2021/10/06 07:31:27;;;;;;;1.60;0.65;;;;;;;;;;5076409;28;20334;-55
2021/10/06 07:33:53;;;;;;;1.98;0.80;;;;;;;;;;5074251;28;20029;-56
2021/10/06 07:36:23;;;;;;;2.47;1.10;;;;;;;;;;5074852;28;20029;-56
2021/10/06 07:38:49;;;;;;;3.30;1.58;;;;;;;;;;5067728;28;20033;-56
2021/10/06 07:41:15;;;;;;;5.95;0.70;;;;;;;;;;5073268;28;20028;-58
2021/10/06 07:43:41;;;;;;;0.70;0.60;;;;;;;;;;5074463;28;20029;-55
2021/10/06 07:46:07;;;;;;;0.80;0.50;;;;;;;;;;5074278;28;20032;-57
2021/10/06 07:48:33;;;;;;;2.47;0.60;;;;;;;;;;5072593;28;20457;-57
2021/10/06 07:50:59;;;;;;;1.27;0.63;;;;;;;;;;5074193;28;20025;-56
2021/10/06 07:53:25;;;;;;;0.98;0.65;;;;;;;;;;5074645;28;20096;-57
2021/10/06 07:55:51;;;;;;;4.18;0.75;;;;;;;;;;5074056;28;20023;-56
2021/10/06 07:58:17;;;;;;;0.68;0.50;;;;;;;;;;5073973;28;20031;-58
2021/10/06 08:00:43;;;;;;;1.35;0.50;;;;;;;;;;5074037;28;20028;-57
2021/10/06 08:03:09;;;;;;;0.73;0.60;;;;;;;;;;5074539;28;20028;-56
2021/10/06 08:05:35;;;;;;;0.85;0.60;;;;;;;;;;5072377;28;20037;-57
2021/10/06 08:08:01;;;;;;;1.63;0.50;;;;;;;;;;5074308;28;20473;-55
2021/10/06 08:10:27;;;;;;;0.60;0.40;;;;;;;;;;5073569;28;20044;-57
2021/10/06 08:12:53;;;;;;;1.05;0.55;;;;;;;;;;5074250;28;20477;-54
2021/10/06 08:15:19;;;;;;;1.52;0.55;;;;;;;;;;5070451;28;20028;-55
2021/10/06 08:17:45;;;;;;;2.35;0.90;;;;;;;;;;5073567;28;20368;-57
2021/10/06 08:20:11;;;;;;;0.55;0.40;;;;;;;;;;5073284;28;20032;-56
2021/10/06 08:22:38;;;;;;;0.73;0.40;;;;;;;;;;5074194;28;20053;-57
2021/10/06 08:25:04;;;;;;;0.47;0.40;;;;;;;;;;5066491;28;20033;-53
2021/10/06 08:27:30;;;;;;;0.63;0.30;;;;;;;;;;5074384;28;20024;-56
2021/10/06 08:29:56;;;;;;;1.02;0.60;;;;;;;;;;5074813;28;20020;-57
2021/10/06 08:32:22;;;;;;;2.05;0.50;;;;;;;;;;5073273;28;20483;-56
2021/10/06 08:34:49;;;;;;;1.55;0.52;;;;;;;;;;5073397;28;20739;-57
2021/10/06 08:37:15;;;;;;;0.73;0.40;;;;;;;;;;5073809;28;20539;-57
2021/10/06 08:39:41;;;;;;;1.92;0.60;;;;;;;;;;5072034;28;20111;-56
2021/10/06 08:42:09;;;;;;;1.48;0.47;;;;;;;;;;5071171;28;20033;-59
2021/10/06 08:44:36;;;;;;;1.00;0.50;;;;;;;;;;5073502;28;20021;-57
2021/10/06 08:47:02;;;;;;;2.30;0.43;;;;;;;;;;5068951;28;20029;-56
2021/10/06 08:49:28;;;;;;;0.50;0.40;;;;;;;;;;5072937;28;20032;-58
2021/10/06 08:51:54;;;;;;;3.15;0.40;;;;;;;;;;5071923;28;20040;-56
2021/10/06 08:54:21;;;;;;;0.68;0.40;;;;;;;;;;5070167;28;20426;-56
2021/10/06 08:56:48;;;;;;;0.82;0.43;;;;;;;;;;5070520;28;20097;-57
2021/10/06 08:59:14;;;;;;;2.55;0.52;;;;;;;;;;5069876;28;20025;-57
2021/10/06 09:01:44;;;;;;;0.68;0.50;;;;;;;;;;5072426;28;20028;-56
2021/10/06 09:04:10;;;;;;;3.53;0.60;;;;;;;;;;5073310;28;20029;-55
2021/10/06 09:06:43;;;;;;;1.23;0.40;;;;;;;;;;5072142;28;20448;-57
2021/10/06 09:09:17;;;;;;;1.35;0.47;;;;;;;;;;5072771;28;20073;-57
2021/10/06 09:11:44;;;;;;;2.72;0.50;;;;;;;;;;5068859;28;20037;-54
2021/10/06 09:14:10;;;;;;;0.95;0.50;;;;;;;;;;5072525;28;20044;-54
2021/10/06 09:16:37;;;;;;;1.77;0.50;;;;;;;;;;5072669;28;20017;-58
2021/10/06 09:19:05;;;;;;;7.03;1.38;;;;;;;;;;5072424;28;20373;-54
2021/10/06 09:21:31;;;;;;;1.27;0.47;;;;;;;;;;5062367;28;20035;-54
2021/10/06 09:23:57;;;;;;;1.05;0.32;;;;;;;;;;5072726;28;20115;-55
2021/10/06 09:26:23;;;;;;;1.48;0.45;;;;;;;;;;5064067;28;20040;-56
2021/10/06 09:28:52;;;;;;;1.85;0.55;;;;;;;;;;5072171;28;20033;-53
2021/10/06 09:31:19;;;;;;;1.05;0.40;;;;;;;;;;5072329;28;20035;-56
2021/10/06 09:33:53;;;;;;;1.95;0.43;;;;;;;;;;5072315;28;20028;-54
2021/10/06 09:36:19;;;;;;;;;;;;;;;;;;5069794;28;20104;-57
2021/10/06 09:38:47;;;;;;;2.55;0.43;;;;;;;;;;5071792;28;20015;-54
2021/10/06 09:41:29;;;;;;;2.05;0.40;;;;;;;;;;5072485;28;20017;-52
2021/10/06 09:43:55;;;;;;;0.88;0.40;;;;;;;;;;5068374;28;20017;-55
2021/10/06 09:46:21;;;;;;;1.10;0.60;;;;;;;;;;5072009;28;20039;-54
2021/10/06 09:48:47;;;;;;;0.50;0.40;;;;;;;;;;5067987;28;20025;-53
2021/10/06 09:51:13;;;;;;;0.93;0.52;;;;;;;;;;5071370;28;20036;-54
2021/10/06 09:53:47;;;;;;;2.10;0.80;;;;;;;;;;5070806;28;20084;-56
2021/10/06 09:56:16;;;;;;;0.70;0.47;;;;;;;;;;5071978;28;20021;-56
2021/10/06 09:58:42;;;;;;;6.07;0.60;;;;;;;;;;5071704;28;20042;-57
2021/10/06 10:01:08;;;;;;;2.83;0.90;;;;;;;;;;5071658;28;20064;-57
2021/10/06 10:03:35;;;;;;;1.30;0.40;;;;;;;;;;5065365;28;20131;-57
2021/10/06 10:06:02;;;;;;;3.15;0.40;;;;;;;;;;5072293;28;20456;-57
2021/10/06 10:08:28;;;;;;;1.02;0.47;;;;;;;;;;5071107;28;20020;-55
2021/10/06 10:10:54;;;;;;;2.28;0.73;;;;;;;;;;5072049;28;20036;-55
2021/10/06 10:13:23;;;;;;;0.38;0.30;;;;;;;;;;5072070;28;20028;-56
2021/10/06 10:15:49;;;;;;;0.75;0.52;;;;;;;;;;5070985;28;20035;-56
2021/10/06 10:18:15;;;;;;;0.52;0.30;;;;;;;;;;5071601;28;20452;-55
2021/10/06 10:20:43;;;;;;;2.50;0.43;;;;;;;;;;5071026;28;20095;-57
2021/10/06 10:23:13;;;;;;;2.08;0.57;;;;;;;;;;5065858;28;20039;-55
2021/10/06 10:25:40;;;;;;;0.98;0.30;;;;;;;;;;5063946;28;20032;-57
2021/10/06 10:28:16;;;;;;;0.88;0.40;;;;;;;;;;5070440;28;20152;-54
2021/10/06 10:31:14;;;;;;;0.20;0.20;;;;;;;;;;5069890;28;20029;-57
2021/10/06 10:33:42;;;;;;;4.43;0.45;;;;;;;;;;5062737;28;20051;-57
2021/10/06 10:36:40;;;;;;;1.77;0.30;;;;;;;;;;5072002;28;20020;-54
2021/10/06 10:39:25;;;;;;;0.80;0.20;;;;;;;;;;5069371;28;20033;-54
2021/10/06 10:41:54;;;;;;;1.27;0.30;;;;;;;;;;5070480;28;20478;-57
2021/10/06 10:44:24;;;;;;;1.65;0.35;;;;;;;;;;5068130;28;20029;-56
2021/10/06 10:47:01;;;;;;;1.67;0.65;;;;;;;;;;5069998;28;20447;-54
2021/10/06 10:49:27;;;;;;;1.35;0.45;;;;;;;;;;5071493;28;20607;-54
2021/10/06 10:51:57;;;;;;;1.42;0.43;;;;;;;;;;5071215;28;20025;-56
2021/10/06 10:54:38;;;;;;;0.63;0.30;;;;;;;;;;5059530;28;20033;-55
2021/10/06 10:57:17;;;;;;;0.47;0.28;;;;;;;;;;5072172;28;20123;-54
2021/10/06 10:59:44;;;;;;;1.00;0.40;;;;;;;;;;5073552;28;20063;-57
2021/10/06 11:02:15;;;;;;;0.50;0.30;;;;;;;;;;5074546;28;20116;-55
2021/10/06 11:04:44;;;;;;;0.60;0.30;;;;;;;;;;5079622;28;20028;-55
2021/10/06 11:07:14;;;;;;;1.65;0.30;;;;;;;;;;5074484;28;20029;-57
2021/10/06 11:09:41;;;;;;;0.38;0.22;;;;;;;;;;5073562;28;20062;-57
2021/10/06 11:12:07;;;;;;;0.30;0.20;;;;;;;;;;5072482;28;20029;-55
2021/10/06 11:14:33;;;;;;;1.08;0.25;;;;;;;;;;5074009;28;20377;-53
2021/10/06 11:17:05;;;;;;;1.42;0.50;;;;;;;;;;5075638;28;20032;-54
2021/10/06 11:19:46;;;;;;;1.95;0.47;;;;;;;;;;5074714;28;20131;-56
2021/10/06 11:22:33;;;;;;;0.90;0.35;;;;;;;;;;5074534;28;20107;-52
2021/10/06 11:25:03;;;;;;;1.20;0.28;;;;;;;;;;5057739;28;20505;-58
2021/10/06 11:27:43;;;;;;;1.38;0.40;;;;;;;;;;5069149;28;20070;-57
2021/10/06 11:30:11;;;;;;;0.80;0.32;;;;;;;;;;5075273;28;20054;-53
2021/10/06 11:32:53;;;;;;;1.50;0.20;;;;;;;;;;5071318;28;20120;-58
2021/10/06 11:35:19;;;;;;;0.85;0.40;;;;;;;;;;5065541;28;20053;-56
2021/10/06 11:37:45;;;;;;;1.35;0.30;;;;;;;;;;5074105;28;20078;-53
2021/10/06 11:40:12;;;;;;;0.82;0.30;;;;;;;;;;5071839;28;20034;-59
2021/10/06 11:42:39;;;;;;;1.50;0.30;;;;;;;;;;5068597;28;20045;-60
2021/10/06 11:45:05;;;;;;;1.55;0.52;;;;;;;;;;5074246;28;20166;-54
2021/10/06 11:47:36;;;;;;;2.15;0.47;;;;;;;;;;5073481;28;20031;-55
2021/10/06 11:50:02;;;;;;;3.33;0.47;;;;;;;;;;5074617;28;20020;-52
2021/10/06 11:52:28;;;;;;;0.40;0.30;;;;;;;;;;5073768;28;20043;-54
2021/10/06 11:54:54;;;;;;;2.33;0.57;;;;;;;;;;5070530;28;20020;-57
2021/10/06 11:57:20;;;;;;;0.73;0.40;;;;;;;;;;5065195;28;20028;-53
2021/10/06 11:59:49;;;;;;;3.50;0.47;;;;;;;;;;5075163;28;20025;-54
2021/10/06 12:02:16;;;;;;;1.77;0.40;;;;;;;;;;5063186;28;20498;-55
2021/10/06 12:04:49;;;;;;;1.08;0.60;;;;;;;;;;5073082;28;20021;-58
2021/10/06 12:07:25;;;;;;;0.77;0.22;;;;;;;;;;5071836;28;20032;-53
2021/10/06 12:09:56;;;;;;;2.28;0.50;;;;;;;;;;5070194;28;20063;-57
2021/10/06 12:12:25;;;;;;;0.60;0.20;;;;;;;;;;5071958;28;20032;-56
2021/10/06 12:14:58;;;;;;;0.63;0.20;;;;;;;;;;5073150;28;20341;-55
2021/10/06 12:17:25;;;;;;;1.60;0.20;;;;;;;;;;5073957;28;20364;-56
2021/10/06 12:19:59;;;;;;;1.10;0.40;;;;;;;;;;5069174;28;20097;-57
2021/10/06 12:22:30;;;;;;;3.97;1.15;;;;;;;;;;5067305;28;20066;-58
2021/10/06 12:24:57;;;;;;;2.15;0.30;;;;;;;;;;5066818;28;20028;-56
2021/10/06 12:27:27;;;;;;;1.15;0.35;;;;;;;;;;5067796;28;20065;-56
2021/10/06 12:30:22;;;;;;;0.20;0.20;;;;;;;;;;5066872;28;20036;-54
2021/10/06 12:32:50;;;;;;;1.95;0.50;;;;;;;;;;5059037;28;20048;-56
2021/10/06 12:35:18;;;;;;;2.40;1.02;;;;;;;;;;5073233;28;20485;-52
2021/10/06 12:37:51;;;;;;;0.80;0.43;;;;;;;;;;5065301;28;20071;-55
2021/10/06 12:40:34;;;;;;;1.08;0.40;;;;;;;;;;5073344;28;20025;-55
2021/10/06 12:43:11;;;;;;;0.75;0.35;;;;;;;;;;5074586;28;20024;-52
2021/10/06 12:45:58;;;;;;;0.95;0.40;;;;;;;;;;5072033;28;20024;-57
2021/10/06 12:48:33;;;;;;;1.20;0.30;;;;;;;;;;5067075;28;20035;-55
2021/10/06 12:50:59;;;;;;;3.85;0.85;;;;;;;;;;5069630;28;20431;-53
2021/10/06 12:53:27;;;;;;;0.38;0.30;;;;;;;;;;5064429;28;20029;-54
2021/10/06 12:55:53;;;;;;;0.47;0.22;;;;;;;;;;5071210;28;20013;-52
2021/10/06 12:58:19;;;;;;;0.88;0.50;;;;;;;;;;5070999;28;20381;-57
2021/10/06 13:00:45;;;;;;;0.93;0.40;;;;;;;;;;5068251;28;20194;-56
2021/10/06 13:03:11;;;;;;;0.57;0.30;;;;;;;;;;5068829;28;20615;-55
2021/10/06 13:05:37;;;;;;;0.93;0.40;;;;;;;;;;5072287;28;20028;-54
2021/10/06 13:08:16;;;;;;;2.50;0.30;;;;;;;;;;5072958;28;20039;-52
2021/10/06 13:10:43;;;;;;;3.63;0.70;;;;;;;;;;5062497;28;20041;-54
2021/10/06 13:13:09;;;;;;;2.03;0.40;;;;;;;;;;5069980;28;20040;-55
2021/10/06 13:15:35;;;;;;;1.52;0.50;;;;;;;;;;5071067;28;20458;-56
2021/10/06 13:18:02;;;;;;;1.55;0.40;;;;;;;;;;5069695;28;20124;-57
2021/10/06 13:20:28;;;;;;;0.40;0.20;;;;;;;;;;5070876;28;20450;-56
2021/10/06 13:22:54;;;;;;;2.42;0.40;;;;;;;;;;5070789;28;20056;-56
2021/10/06 13:25:20;;;;;;;0.30;0.28;;;;;;;;;;5073130;28;20070;-58
2021/10/06 13:27:46;;;;;;;0.80;0.50;;;;;;;;;;5074063;28;20032;-52
2021/10/06 13:30:14;;;;;;;0.55;0.35;;;;;;;;;;5067304;28;20472;-54
2021/10/06 13:32:41;;;;;;;1.00;0.68;;;;;;;;;;5071532;28;20043;-57
2021/10/06 13:35:07;;;;;;;0.38;0.20;;;;;;;;;;5072650;28;20037;-55
2021/10/06 13:37:33;;;;;;;0.65;0.30;;;;;;;;;;5067748;28;20107;-57
2021/10/06 13:39:59;;;;;;;0.73;0.30;;;;;;;;;;5065562;28;20427;-53
2021/10/06 13:42:26;;;;;;;0.75;0.25;;;;;;;;;;5070881;28;20063;-55
2021/10/06 13:44:52;;;;;;;1.25;0.47;;;;;;;;;;5073182;28;20407;-52
2021/10/06 13:47:18;;;;;;;0.30;0.30;;;;;;;;;;5072932;28;20025;-57
2021/10/06 13:49:44;;;;;;;1.15;0.40;;;;;;;;;;5067825;28;20380;-56
2021/10/06 13:52:10;;;;;;;0.65;0.28;;;;;;;;;;5067634;28;20040;-56
2021/10/06 13:54:36;;;;;;;0.68;0.35;;;;;;;;;;5062310;28;20112;-56
2021/10/06 13:57:02;;;;;;;1.42;0.60;;;;;;;;;;5073009;28;20028;-54
2021/10/06 13:59:28;;;;;;;1.40;0.30;;;;;;;;;;5070129;28;20028;-57
2021/10/06 14:01:54;;;;;;;3.35;0.43;;;;;;;;;;5062900;28;20579;-56
2021/10/06 14:04:21;;;;;;;0.88;0.15;;;;;;;;;;5066173;28;20028;-53
2021/10/06 14:06:47;;;;;;;1.13;0.40;;;;;;;;;;5059391;28;20028;-55
2021/10/06 14:09:13;;;;;;;0.55;0.30;;;;;;;;;;5067813;28;20029;-54
2021/10/06 14:11:39;;;;;;;1.45;0.50;;;;;;;;;;5066786;28;20047;-52
2021/10/06 14:14:05;;;;;;;0.90;0.22;;;;;;;;;;5071696;28;20021;-56
2021/10/06 14:16:31;;;;;;;1.77;0.28;;;;;;;;;;5071188;28;20125;-57
2021/10/06 14:18:57;;;;;;;0.50;0.20;;;;;;;;;;5068979;28;20119;-56
2021/10/06 14:21:23;;;;;;;1.92;0.50;;;;;;;;;;5066058;28;20024;-56
2021/10/06 14:23:49;;;;;;;0.85;0.35;;;;;;;;;;5059824;28;20021;-52
2021/10/06 14:26:15;;;;;;;1.00;0.45;;;;;;;;;;5067064;28;20028;-54
2021/10/06 14:28:41;;;;;;;0.90;0.30;;;;;;;;;;5063202;28;20404;-53
2021/10/06 14:31:07;;;;;;;0.73;0.32;;;;;;;;;;5068669;28;20036;-57
2021/10/06 14:33:33;;;;;;;0.98;0.38;;;;;;;;;;5068328;28;20387;-56
2021/10/06 14:36:00;;;;;;;0.98;0.30;;;;;;;;;;5063048;28;20028;-53
2021/10/06 14:38:26;;;;;;;1.33;0.25;;;;;;;;;;5065985;28;20469;-57
2021/10/06 14:40:57;;;;;;;3.95;0.38;;;;;;;;;;5065288;28;20111;-52
2021/10/06 14:43:23;;;;;;;0.98;0.13;;;;;;;;;;5068906;28;20025;-56